• Join FlightAware (Why Join?)
  • Login
  • US Flag 
05:15PM EST


 

Airport Tracker/Info


-or-


 

Live Flight TrackerFlight Track Log ✈ UPS1134 ✈ 24-Sep-2013 ✈ KALB - KSYR

Flight Track Log - Related Links

Times and Time Zones

All times are in EDT time to prevent confusion due to time zone crossing. See the UPS1134 flight status page for this flight to view local times or setup timezone preferences in your user account.

Time Position Orientation Groundspeed Altitude Reporting Facility
EDT Latitude Longitude Course Direction KTS MPH feet Rate Location/Type
04:06AM 42.7131 -73.8050 172° South 165 190 2,100  Level Boston Center
04:07AM 42.6856 -73.8467 228° Southwest 212 244 3,900 2,040 Climbing Boston Center
04:08AM 42.6969 -73.9317 280° West 222 255 6,400 2,880 Climbing Boston Center
04:09AM 42.7164 -74.0283 285° West 247 284 10,100 840 Climbing Boston Center
04:15AM 42.8730 -74.7640 285° West 380 437 11,900 240 Climbing FlightAware
04:16AM 42.8940 -74.8550 288° West 378 435 11,900  Level FlightAware
04:16AM 42.9120 -74.9360 287° West 379 436 11,900  Level FlightAware
04:17AM 42.9300 -75.0200 286° West 380 437 11,900 -180 Level FlightAware
04:17AM 42.9490 -75.1030 287° West 379 436 11,700 -900 Descending FlightAware
04:18AM 42.9660 -75.1750 288° West 352 405 10,900 -900 Descending FlightAware
04:18AM 42.9800 -75.2420 286° West 285 328 10,700 -960 Descending FlightAware
04:19AM 42.9870 -75.2900 281° West 264 304 9,900 -1,680 Descending FlightAware
04:19AM 42.9900 -75.3100 282° West 262 302 9,600 -1,500 Descending FlightAware
04:19AM 42.9960 -75.3420 284° West 263 303 9,100 -1,680 Descending FlightAware
04:20AM 43.0030 -75.3820 283° West 266 306 8,400 -1,800 Descending FlightAware
04:20AM 43.0090 -75.4150 284° West 265 305 7,800 -1,680 Descending FlightAware
04:20AM 43.0140 -75.4410 285° West 264 304 7,400 -1,500 Descending FlightAware
04:21AM 43.0190 -75.4740 282° West 265 305 6,900 -1,500 Descending FlightAware
04:21AM 43.0240 -75.5000 285° West 265 305 6,500 -1,500 Descending FlightAware
04:21AM 43.0300 -75.5320 284° West 265 305 6,000 -1,500 Descending FlightAware
04:22AM 43.0340 -75.5590 281° West 264 304 5,600 -1,500 Descending FlightAware
04:22AM 43.0410 -75.5970 284° West 261 300 5,000 -1,380 Descending FlightAware
04:22AM 43.0480 -75.6360 284° West 256 295 4,500 -1,200 Descending FlightAware
04:23AM 43.0530 -75.6690 282° West 251 289 4,100 -1,020 Descending FlightAware
04:23AM 43.0590 -75.7000 285° West 245 282 3,800 -480 Descending FlightAware
04:23AM 43.0640 -75.7300 283° West 244 281 3,800  Level FlightAware
04:24AM 43.0690 -75.7600 283° West 234 269 3,800  Level FlightAware
04:24AM 43.0740 -75.7870 284° West 218 251 3,800  Level FlightAware
04:24AM 43.0780 -75.8100 283° West 202 232 3,800  Level FlightAware
04:25AM 43.0810 -75.8300 282° West 194 223 3,800  Level FlightAware
04:25AM 43.0860 -75.8550 285° West 193 222 3,800 -300 Level FlightAware
04:25AM 43.0900 -75.8790 283° West 189 217 3,600 -1,140 Descending FlightAware
04:26AM 43.0950 -75.9060 284° West 181 208 3,000 -1,260 Descending FlightAware
04:26AM 43.0990 -75.9280 284° West 163 188 2,700 -960 Descending FlightAware
04:26AM 43.1010 -75.9400 283° West 149 171 2,500 -720 Descending FlightAware
04:27AM 43.1040 -75.9590 282° West 125 144 2,300 -600 Descending FlightAware
04:27AM 43.1060 -75.9740 280° West 119 137 2,100 -780 Descending FlightAware
04:27AM 43.1090 -75.9900 284° West 120 138 1,800 -840 Descending FlightAware
04:28AM 43.1110 -76.0010 284° West 121 139 1,600 -600 Descending FlightAware
04:28AM 43.1120 -76.0120 277° West 124 143 1,500 -720 Descending FlightAware
04:28AM 43.1110 -76.0340 266° West 122 140 1,100 -780 Descending FlightAware
04:29AM 43.1110 -76.0500 270° West 122 140 900 -600 Descending FlightAware
04:29AM 43.1100 -76.0590 261° West 120 138 800 -720 Descending FlightAware
04:29AM 43.1100 -76.0770 270° West 119 137 500 -600 Descending FlightAware
04:30AM 43.1100 -76.0880 270° West 122 140 400 -180 Descending FlightAware
04:30AM 43.1090 -76.1050 265° West 122 140 400  Level FlightAware
04:38AM 43.1112 -76.1063 90° East  Level Estimated
04:39AM 43.1112 -76.1063 90° East  Level Estimated
04:40AM 43.1112 -76.1063 90° East  Level Estimated
04:41AM 43.1112 -76.1063 90° East  Level Estimated
04:42AM 43.1112 -76.1063 90° East  Level Estimated
04:43AM 43.1112 -76.1063 90° East  Level Estimated
04:44AM 43.1112 -76.1063 90° East  Level Estimated
04:45AM 43.1112 -76.1063 90° East  Level Estimated